Etusivu
METAR-TAF:

METAR-TAF

Lentoasemat :

Bodø, Norja

Bodøn lentoasema

Leveyspiiri: 67-16N, Pituuspiiri: 014-22E, korkeus merenpinnasta: 1 m

Tämänhetkinen sää

Tämä raportti tehtiin 53 minuuttia sitten, kello 22.20 UTC
Tuuli 17 kn idästä/koillisesta
Lämpötila 0°C
Kosteus 86%
Ilmanpaine 990 hPa
Näkyvyys 10 km tai enemmän
ei pilviä alle 1500 m:ssä eikä cumulonimbus-pilviä

METAR: ENBO 172220Z 07017KT CAVOK 00/M02 Q0990 NOSIG

Aika: 00:13 (23:13 UTC)

Sääennuste

Ennuste voimassa 17. päivästä klo 18 UTC - 18. päivään klo 18 UTC
Tuuli 18 kn idästä
Näkyvyys 10 km tai enemmän
Muutamia pilviä 800 ft:n korkeudessa
Hajanaisia pilviä 4000 ft:n korkeudessa
Todennäköisyys 40% :
Ajoittain
18. päivästä klo 00 UTC - 18. päivään klo 09 UTC
Näkyvyys: 3000 m
Hajonneita pilviä 1400 ft:n korkeudessa, Cumulonimbus.
heikkoja lumikuuroja, sadetta

TAF: ENBO 1718/1818 09018KT 9999 FEW008 SCT040 PROB40 TEMPO 1800/1809 3000 -SHSNRA BKN014CB

Säähavainnot ja -ennusteet yli 4000 lentoasemalta (METAR- ja TAF-raportit).

Käytössä olevat sääasemat on merkitty karttaan keltaisilla ja punaisilla pisteillä.

Aseta hiiri pisteen päälle nähdäksesi sääaseman nimen.

Klikkaa sitten nähdäksesi säähavainnot ja -ennusteet.

Kartan vaihtaminen: klikkaa mustalla rastilla varustettuja vihreitä pisteitä, niin voit zoomata sisään; viivalla varustettua vihreää pistettä, niin voit zoomata ulos tai vihreitä nuolia, niin pääset viereisille kartoille.


METAR-TAF: